PATL/TLJ METAR and TAF weather

Enter ICAO airport designator
Station Type Date Time Source
PATL METAR 2019/12/06 13:55 UTC NOAA

PATL 061355Z AUTO 03006KT 10SM BKN075 M22/M24 A2974 RMK AO2 SLP116 T12241243


Station Type Date Time Source
PATL Decoded METAR 2019/12/06 13:55 UTC NOAA

Takotna, Tatalina LRRS Airport, AK, United States (PATL) 62-54N 155-59W
Dec 06, 2019 - 08:55 AM EST / 2019.12.06 1355 UTC
Wind: from the NNE (030 degrees) at 7 MPH (6 KT):0
Visibility: 10 mile(s):0
Sky conditions: mostly cloudy
Temperature: -8.3 F (-22.4 C)
Windchill: -23 F (-31 C):2
Dew Point: -11.7 F (-24.3 C)
Relative Humidity: 84%
Pressure (altimeter): 29.74 in. Hg (1007 hPa)
ob: PATL 061355Z AUTO 03006KT 10SM BKN075 M22/M24 A2974 RMK AO2 SLP116 T12241243
cycle: 14

Station Type Date Time Source
PATL TAF 2012/01/12 14:06 UTC NOAA

TAF PATL 1214/1320 VRB06KT 9999 FEW050 SCT110 QNH2998INS TM26/1300Z TM32/1315Z

Example: see airport list